createdAt,value
2023-01-20T00:02:23.532Z,8.40
2023-01-20T00:04:50.164Z,9.00
2023-01-20T00:07:16.801Z,9.70
2023-01-20T02:12:21.614Z,10.20
2023-01-20T02:14:50.825Z,9.90
2023-01-20T02:17:33.010Z,10.10
2023-01-20T02:20:08.073Z,8.80
2023-01-20T02:22:34.842Z,9.60
2023-01-20T02:25:04.632Z,10.20
2023-01-20T02:27:44.573Z,9.50
2023-01-20T02:30:42.762Z,10.20
2023-01-20T02:33:42.088Z,9.20
2023-01-20T02:36:10.439Z,9.10
2023-01-20T02:38:59.101Z,8.80
2023-01-20T02:41:32.260Z,8.90
2023-01-20T02:44:08.290Z,10.40
2023-01-20T02:46:45.875Z,9.90
2023-01-20T02:49:51.207Z,9.10
2023-01-20T02:52:24.224Z,8.50
2023-01-20T02:54:53.400Z,8.60
2023-01-20T02:57:24.650Z,9.40
2023-01-20T02:59:53.557Z,9.00
2023-01-20T03:02:21.480Z,9.30
2023-01-20T03:04:51.841Z,9.80
2023-01-20T03:07:20.195Z,8.80
2023-01-20T03:09:48.621Z,9.50
2023-01-20T03:12:22.462Z,9.60
2023-01-20T03:14:52.066Z,9.30
2023-01-20T03:17:20.005Z,9.60
2023-01-20T03:19:47.033Z,9.70
2023-01-20T03:22:13.814Z,10.00
2023-01-20T03:24:40.902Z,9.90
2023-01-20T03:27:07.853Z,9.70
2023-01-20T03:29:34.807Z,9.60
2023-01-20T03:32:02.157Z,9.00
2023-01-20T03:34:31.183Z,9.40
2023-01-20T03:36:58.323Z,9.00
2023-01-20T03:39:25.248Z,9.30
2023-01-20T03:42:15.356Z,9.80
2023-01-20T03:44:45.223Z,11.50
2023-01-20T03:47:30.525Z,11.10
2023-01-20T03:50:06.792Z,11.90
2023-01-20T03:52:47.509Z,9.40
2023-01-20T03:55:23.184Z,8.80
2023-01-20T03:58:05.297Z,9.10
2023-01-20T04:00:34.910Z,9.50
2023-01-20T04:03:03.620Z,9.20
2023-01-20T04:05:30.500Z,10.00
2023-01-20T04:07:57.934Z,9.50
2023-01-20T04:10:24.763Z,9.30
2023-01-20T04:12:51.709Z,8.80
2023-01-20T04:15:18.873Z,8.50
2023-01-20T04:17:45.665Z,7.30
2023-01-20T04:20:12.568Z,8.50
2023-01-20T04:22:44.172Z,8.00
2023-01-20T04:25:20.421Z,7.40
2023-01-20T04:27:47.231Z,9.50
2023-01-20T04:30:14.776Z,9.20
2023-01-20T04:32:41.733Z,8.40
2023-01-20T04:35:12.919Z,8.50
2023-01-20T04:37:39.904Z,8.40
2023-01-20T04:40:07.691Z,8.20
2023-01-20T04:42:34.619Z,7.90
2023-01-20T04:45:01.431Z,7.80
2023-01-20T04:47:34.578Z,8.30
2023-01-20T04:50:01.519Z,8.20
2023-01-20T04:52:28.307Z,8.20
2023-01-20T04:54:55.100Z,7.50
2023-01-20T04:57:21.904Z,7.80
2023-01-20T04:59:50.120Z,8.40
2023-01-20T05:02:17.056Z,9.00
2023-01-20T05:04:45.278Z,8.10
2023-01-20T05:07:12.192Z,7.60
2023-01-20T05:09:38.979Z,8.60
2023-01-20T05:12:05.968Z,9.30
2023-01-20T05:14:32.816Z,9.30
2023-01-20T05:16:59.604Z,8.40
2023-01-20T05:19:26.496Z,9.40
2023-01-20T05:21:53.300Z,8.30
2023-01-20T05:24:20.316Z,9.30
2023-01-20T05:26:47.249Z,8.20
2023-01-20T05:29:14.116Z,7.40
2023-01-20T05:31:43.650Z,7.70
2023-01-20T05:34:11.041Z,7.60
2023-01-20T05:36:37.930Z,8.40
2023-01-20T05:39:04.836Z,8.20
2023-01-20T05:41:31.663Z,8.20
2023-01-20T05:43:58.557Z,7.80
2023-01-20T05:46:25.399Z,8.00
2023-01-20T05:48:52.233Z,8.00
2023-01-20T05:51:19.069Z,7.70
2023-01-20T05:53:46.029Z,8.60
2023-01-20T05:56:16.199Z,8.20
2023-01-20T05:58:43.256Z,8.40
2023-01-20T06:01:12.582Z,8.20
2023-01-20T06:03:39.620Z,8.90
2023-01-20T06:06:08.397Z,7.40
2023-01-20T06:08:35.816Z,7.90
2023-01-20T06:11:02.788Z,9.50
2023-01-20T06:13:29.591Z,8.30
2023-01-20T06:15:56.954Z,9.60
2023-01-20T06:18:24.391Z,9.90
2023-01-20T06:20:51.326Z,8.80
2023-01-20T06:23:18.170Z,9.00
2023-01-20T06:25:45.037Z,9.00
2023-01-20T06:28:11.831Z,8.90
2023-01-20T06:30:38.723Z,9.10
2023-01-20T06:33:10.757Z,8.00
2023-01-20T06:35:38.229Z,8.30
2023-01-20T06:38:05.037Z,8.80
2023-01-20T06:40:31.959Z,9.20
2023-01-20T06:42:59.075Z,8.70
2023-01-20T06:45:25.931Z,11.20
2023-01-20T06:47:52.740Z,9.50
2023-01-20T06:50:19.648Z,9.10
2023-01-20T06:52:46.440Z,10.10
2023-01-20T06:55:13.558Z,10.80
2023-01-20T06:57:40.660Z,9.30
2023-01-20T07:00:08.405Z,8.90
2023-01-20T07:02:35.374Z,8.90
2023-01-20T07:05:02.597Z,8.90
2023-01-20T07:07:29.399Z,8.40
2023-01-20T07:09:56.231Z,10.50
2023-01-20T07:12:23.102Z,9.50
2023-01-20T07:14:49.899Z,10.70
2023-01-20T07:17:16.812Z,10.80
2023-01-20T07:19:43.701Z,9.10
2023-01-20T07:22:10.532Z,9.80
2023-01-20T07:24:37.468Z,9.50
2023-01-20T07:27:04.329Z,9.20
2023-01-20T07:29:31.159Z,8.80
2023-01-20T07:31:58.047Z,8.30
2023-01-20T07:34:25.067Z,7.70
2023-01-20T07:36:53.573Z,8.50
2023-01-20T07:39:24.300Z,8.10
2023-01-20T07:41:51.855Z,8.40
2023-01-20T07:44:19.491Z,8.00
2023-01-20T10:23:57.425Z,8.20
2023-01-20T10:26:37.678Z,7.90
2023-01-20T10:29:06.803Z,8.10
2023-01-20T10:31:44.839Z,6.20
2023-01-20T10:34:15.233Z,7.40
2023-01-20T10:36:43.585Z,7.70
2023-01-20T10:39:41.583Z,7.10
2023-01-20T10:42:12.969Z,6.30
2023-01-20T10:44:39.615Z,7.20
2023-01-20T10:47:22.418Z,7.10
2023-01-20T10:49:51.918Z,6.10
2023-01-20T10:52:43.881Z,7.90
2023-01-20T10:55:41.818Z,7.30
2023-01-20T10:58:13.837Z,6.90
2023-01-20T11:00:40.974Z,6.80
2023-01-20T11:03:11.498Z,6.80
2023-01-20T11:05:40.583Z,6.50
2023-01-20T11:08:15.218Z,7.50
2023-01-20T11:10:41.932Z,7.40
2023-01-20T11:13:09.749Z,7.10
2023-01-20T11:15:43.991Z,8.10
2023-01-20T11:18:13.387Z,8.80
2023-01-20T11:21:04.498Z,9.70
2023-01-20T11:23:36.806Z,8.60
2023-01-20T11:26:10.389Z,7.80
2023-01-20T11:28:47.898Z,7.90
2023-01-20T11:31:15.790Z,8.20
2023-01-20T11:34:00.403Z,7.40
2023-01-20T11:38:55.480Z,7.10
2023-01-20T11:41:23.787Z,7.50
2023-01-20T11:43:52.665Z,6.60
2023-01-20T11:46:26.729Z,6.50
2023-01-20T11:49:16.075Z,7.30
2023-01-20T11:51:56.676Z,6.60
2023-01-20T11:54:27.527Z,7.00
2023-01-20T11:57:00.910Z,7.90
2023-01-20T11:59:29.073Z,6.20
2023-01-20T12:02:20.340Z,6.20
2023-01-20T12:05:12.256Z,6.00
2023-01-20T12:07:42.551Z,6.60
2023-01-20T12:10:22.114Z,6.20
2023-01-20T12:13:01.043Z,6.60
2023-01-20T12:15:33.101Z,7.70
2023-01-20T12:18:09.609Z,7.00
2023-01-20T12:20:53.904Z,6.30
2023-01-20T12:23:45.161Z,6.50
2023-01-20T12:26:18.759Z,6.80
2023-01-20T12:29:10.731Z,7.00
2023-01-20T12:31:37.439Z,7.20
2023-01-20T12:34:06.287Z,7.30
2023-01-20T12:36:56.283Z,8.00
2023-01-20T12:39:38.391Z,7.10
2023-01-20T12:42:35.941Z,8.00
2023-01-20T12:45:24.996Z,7.80
2023-01-20T12:48:09.572Z,7.70
2023-01-20T12:51:16.415Z,7.90
2023-01-20T12:53:43.041Z,7.50
2023-01-20T12:56:15.919Z,7.30
2023-01-20T12:59:00.738Z,8.00
2023-01-20T13:02:01.759Z,7.30
2023-01-20T13:04:47.266Z,6.50
2023-01-20T13:07:14.012Z,8.70
2023-01-20T13:09:44.451Z,7.90
2023-01-20T13:12:32.925Z,8.10
2023-01-20T13:15:20.965Z,7.80
2023-01-20T13:18:12.787Z,7.50
2023-01-20T13:20:40.532Z,7.70
2023-01-20T13:23:10.351Z,6.80
2023-01-20T13:25:37.082Z,7.70
2023-01-20T13:28:04.118Z,7.70
2023-01-20T13:30:53.408Z,6.60
2023-01-20T13:33:37.488Z,6.90
2023-01-20T13:36:16.659Z,7.90
2023-01-20T13:38:44.348Z,7.60
2023-01-20T13:41:11.135Z,7.30
2023-01-20T13:43:44.078Z,7.50
2023-01-20T13:46:10.958Z,6.30
2023-01-20T13:48:38.188Z,6.60
2023-01-20T13:51:27.079Z,6.90
2023-01-20T13:54:33.467Z,6.10
2023-01-20T13:57:22.791Z,7.20
2023-01-20T13:59:50.239Z,7.80
2023-01-20T14:02:27.056Z,7.00
2023-01-20T14:04:58.105Z,8.60
2023-01-20T14:07:26.076Z,7.80
2023-01-20T14:09:56.324Z,7.00
2023-01-20T14:12:22.931Z,6.20
2023-01-20T14:14:51.577Z,7.20
2023-01-20T14:17:26.833Z,7.20
2023-01-20T14:19:54.664Z,7.40
2023-01-20T14:22:26.421Z,8.20
2023-01-20T14:24:56.675Z,12.70
2023-01-20T14:27:32.884Z,13.80
2023-01-20T14:30:20.016Z,11.40
2023-01-20T14:32:46.922Z,9.00
2023-01-20T14:35:28.327Z,8.30
2023-01-20T14:37:55.024Z,8.10
2023-01-20T14:40:32.158Z,6.70
2023-01-20T14:43:02.949Z,8.80
2023-01-20T14:45:31.742Z,9.50
2023-01-20T14:47:59.452Z,10.50
2023-01-20T14:50:26.393Z,10.50
2023-01-20T14:52:53.043Z,9.10
2023-01-20T14:55:40.244Z,9.90
2023-01-20T14:58:17.052Z,8.70
2023-01-20T15:00:50.297Z,10.10
2023-01-20T15:03:23.285Z,10.00
2023-01-20T15:06:00.576Z,11.10
2023-01-20T15:09:04.438Z,10.00
2023-01-20T15:11:33.020Z,9.70
2023-01-20T15:14:00.124Z,9.60
2023-01-20T15:16:31.082Z,11.80
2023-01-20T15:19:13.106Z,9.20
2023-01-20T15:21:45.340Z,8.40
2023-01-20T15:24:46.774Z,8.40
2023-01-20T15:27:23.729Z,8.60
2023-01-20T15:30:13.054Z,10.10
2023-01-20T15:32:40.777Z,10.70
2023-01-20T15:35:12.080Z,9.30
2023-01-20T15:37:40.201Z,9.70
2023-01-20T18:59:58.206Z,17.00
2023-01-20T19:02:25.174Z,15.70
2023-01-20T19:04:52.201Z,17.70
2023-01-20T19:07:20.375Z,14.30
2023-01-20T19:09:47.059Z,14.60
2023-01-20T19:12:13.858Z,14.60
2023-01-20T19:14:40.439Z,16.70
2023-01-20T19:17:07.774Z,15.10
2023-01-20T19:19:34.904Z,16.00
2023-01-20T19:22:01.747Z,15.30
2023-01-20T19:24:29.766Z,14.60
2023-01-20T19:26:57.686Z,15.00
2023-01-20T19:29:28.249Z,15.60
2023-01-20T19:31:56.752Z,16.60
2023-01-20T19:34:25.403Z,15.90
2023-01-20T19:36:52.748Z,17.70
2023-01-20T19:39:19.999Z,18.80
2023-01-20T19:41:46.698Z,18.00
2023-01-20T19:44:13.407Z,19.60
2023-01-20T19:46:41.280Z,20.20
2023-01-20T19:49:34.523Z,19.50
2023-01-20T19:52:01.315Z,18.20
2023-01-20T19:54:30.299Z,18.80
2023-01-20T19:56:57.606Z,16.40
2023-01-20T19:59:24.505Z,18.20
2023-01-20T20:01:52.025Z,18.70
2023-01-20T20:04:20.074Z,17.80
2023-01-20T20:06:48.656Z,16.80
2023-01-20T20:09:18.786Z,16.80
2023-01-20T20:11:46.659Z,17.40
2023-01-20T20:14:16.219Z,18.20
2023-01-20T20:16:42.807Z,18.90
2023-01-20T20:19:12.301Z,20.60
2023-01-20T20:21:39.562Z,20.80
2023-01-20T20:24:06.498Z,19.60
2023-01-20T20:26:35.146Z,18.70
2023-01-20T20:29:03.051Z,21.00
2023-01-20T20:31:31.163Z,21.40
2023-01-20T20:33:58.597Z,21.60
2023-01-20T20:36:27.998Z,21.00
2023-01-20T20:38:58.027Z,22.10
2023-01-20T20:41:29.980Z,21.10
2023-01-20T20:43:57.839Z,23.40
2023-01-20T20:46:25.930Z,24.20
2023-01-20T20:48:54.363Z,21.80
2023-01-20T20:51:23.580Z,22.90
2023-01-20T20:53:57.857Z,21.20
2023-01-20T20:56:27.627Z,20.60
2023-01-20T20:59:01.519Z,21.20
2023-01-20T21:01:32.509Z,23.40
2023-01-20T21:03:59.897Z,23.70
2023-01-20T21:06:27.206Z,23.60
2023-01-20T21:08:54.602Z,25.90
2023-01-20T21:11:21.899Z,21.60
2023-01-20T21:13:49.161Z,22.50
2023-01-20T21:16:20.114Z,24.90
2023-01-20T21:18:47.168Z,24.40
2023-01-20T21:21:16.477Z,24.30
2023-01-20T21:23:47.494Z,24.30
2023-01-20T21:26:15.151Z,23.60
2023-01-20T21:28:45.029Z,23.20
2023-01-20T21:31:13.287Z,24.20
2023-01-20T21:33:41.741Z,25.70
2023-01-20T21:36:11.567Z,26.30
2023-01-20T21:38:40.918Z,26.20
2023-01-20T21:41:09.599Z,25.50
2023-01-20T21:43:57.268Z,25.70
2023-01-20T21:46:24.266Z,26.40
2023-01-20T21:49:10.105Z,26.80
2023-01-20T21:51:55.687Z,26.40
2023-01-20T21:54:26.237Z,25.50
2023-01-20T21:56:53.057Z,26.20
2023-01-20T21:59:20.005Z,23.60
2023-01-20T22:01:46.748Z,24.20
2023-01-20T22:04:13.697Z,26.10
2023-01-20T22:06:41.899Z,28.20
2023-01-20T22:09:08.713Z,26.80
2023-01-20T22:11:36.051Z,25.40
2023-01-20T22:14:03.087Z,26.00
2023-01-20T22:16:31.543Z,26.10
2023-01-20T22:18:58.713Z,24.90
2023-01-20T22:21:26.107Z,26.20
2023-01-20T22:23:55.103Z,25.30
2023-01-20T22:26:22.253Z,25.20
2023-01-20T22:28:49.139Z,25.70
2023-01-20T22:31:23.339Z,26.20
2023-01-20T22:33:54.467Z,26.70
2023-01-20T22:36:22.067Z,26.30
2023-01-20T22:38:50.609Z,26.00
2023-01-20T22:41:18.250Z,23.90
2023-01-20T22:43:47.219Z,23.50
2023-01-20T22:46:18.164Z,27.80
2023-01-20T22:48:45.075Z,24.80
2023-01-20T22:51:13.852Z,26.10
2023-01-20T22:53:41.118Z,25.40
2023-01-20T22:56:11.316Z,26.00
2023-01-20T22:58:38.278Z,26.00
2023-01-20T23:01:07.852Z,26.70
2023-01-20T23:03:35.346Z,25.10
2023-01-20T23:06:02.175Z,25.40
2023-01-20T23:08:29.461Z,24.40
2023-01-20T23:10:59.592Z,25.90
2023-01-20T23:13:26.768Z,26.20
2023-01-20T23:15:53.934Z,24.40
2023-01-20T23:18:21.183Z,25.30
2023-01-20T23:20:52.076Z,26.20
2023-01-20T23:23:19.710Z,25.70
2023-01-20T23:25:46.656Z,26.10
2023-01-20T23:28:13.859Z,26.10
2023-01-20T23:30:40.901Z,26.80
2023-01-20T23:33:09.451Z,26.80
2023-01-20T23:35:39.636Z,24.70
2023-01-20T23:38:06.756Z,26.50
2023-01-20T23:40:34.673Z,28.10
2023-01-20T23:43:03.453Z,28.10
2023-01-20T23:45:30.771Z,29.40
2023-01-20T23:47:57.641Z,26.20
2023-01-20T23:50:24.653Z,27.30
2023-01-20T23:52:51.346Z,26.20
2023-01-20T23:55:18.214Z,27.70
2023-01-20T23:57:44.808Z,28.60
